DAAGDAUZ

Guest
Details From DAAG - Alger Houari Boumediene
To DAUZ - IN AMENAS
Flight Number -
Tags decoded
Created
Modified
Stats Distance 619 nm / 1,147 km
Max Altitude 0 ft / 0 m
Waypoints 5
Social Downloads 0
Likes 0
Share VATSIM

Download

Looking for another format? Having issues loading an existing format? Contact us
Advertisement - Login to hide

Notes

Requested: DAAG BSA ZIBAN ELO DAUZ

Route

DAAG BSA ZIBAN ELO DAUZ

ID Type Via Altitude Latitude Longitude Leg Dist Tot Dist Heading (true) Name
O DAAG APT - 0 ft / 0 m 36.69752˚ 3.21308˚ - 0 nm - Alger Houari Boumediene
BSA VOR - 0 ft / 0 m 35.51528˚ 4.40167˚ 91 nm 91 nm 141° / 141° BOU SAADA VOR-DME
ZIBAN FIX - 0 ft / 0 m 34.80000˚ 5.25000˚ 59 nm 151 nm 136° / 136° -
ELO NDB - 0 ft / 0 m 33.50628˚ 6.78777˚ 108 nm 260 nm 135° / 136° EL OUED NDB
O DAUZ APT - 0 ft / 0 m 28.05759˚ 9.64093˚ 358 nm 619 nm 155° / 156° IN AMENAS

Altitude Profile

Advertisement - Login to hide

Weather


0- 5 10 15 20 25 30 35+ Temperature / ° C

Clouds and Precipitation
Forecast for 2017-12-13 06:00 UTC. Updated 25 minutes ago

Ground ~20,000 ft ~40,000 ft Winds

DAAG

Details ICAO DAAG (ALG)
Name Alger Houari Boumediene
Region Algeria
Timezone Africa/Algiers (UTC+1.0)
Stats Elevation 82 ft / 25 m (AMSL)
Location 36.697521° 3.213079°
Runways 2
Magnetic Variation 1.057° E

METAR

DAAG 130330Z 22007KT 180V250 9999 -RA FEW020TCU SCT043 11/10 Q1025

Decode

TAF

TAF DAAG 122300Z 1300/1324 28010KT 9999 FEW020 SCT040 BKN100 PROB40 TEMPO 1300/1307 5000 -RA FEW023CB

Decode

Departure Runways

ID Width Length Bearing (true) Bearing (mag) Surface Threshold Offset Overrun Length
05 197 ft / 60 m 11,459 ft / 3,493 m 52.87° 51.81° Asphalt 0 ft / 0 m 0 ft / 0 m
09 148 ft / 45 m 11,442 ft / 3,487 m 91.75° 90.69° Asphalt 0 ft / 0 m 1,017 ft / 310 m
23 197 ft / 60 m 11,459 ft / 3,493 m 232.89° 231.83° Asphalt 0 ft / 0 m 0 ft / 0 m
27 148 ft / 45 m 11,442 ft / 3,487 m 271.78° 270.72° Asphalt 0 ft / 0 m 0 ft / 0 m

DAUZ

Details ICAO DAUZ (IAM)
Name IN AMENAS
Region Algeria
Timezone Africa/Algiers (UTC+1.0)
Stats Elevation 1,847 ft / 563 m (AMSL)
Location 28.057591° 9.640928°
Runways 2
Magnetic Variation 1.749° E

METAR

DAUZ 130300Z 06008KT CAVOK 05/M04 Q1022

Decode

TAF

TAF DAUZ 122300Z 1300/1324 06010KT CAVOK

Decode

Destination Runways

ID Width Length Bearing (true) Bearing (mag) Surface Threshold Offset Overrun Length
05 148 ft / 45 m 9,854 ft / 3,004 m 46.75° 45.00° Asphalt 0 ft / 0 m 0 ft / 0 m
15 98 ft / 30 m 7,240 ft / 2,207 m 145.27° 143.52° Asphalt 0 ft / 0 m 0 ft / 0 m
23 148 ft / 45 m 9,854 ft / 3,004 m 226.76° 225.01° Asphalt 0 ft / 0 m 0 ft / 0 m
33 98 ft / 30 m 7,240 ft / 2,207 m 325.28° 323.53° Asphalt 0 ft / 0 m 148 ft / 45 m

Popular Alternatives